Time;durP1;ratioP1;P1;durP2;ratioP2;P2;SDS_P1;SDS_P2;PMS_P1;PMS_P2;Temp;Humidity;BMP_temperature;BMP_pressure;BME280_temperature;BME280_humidity;BME280_pressure;Samples;Min_cycle;Max_cycle;Signal;HPM_P1;HPM_P2
2023/09/07 00:00:14;;;;;;;2.83;2.22;;;16.10;99.90;;;15.98;100.00;97571.66;5001884;28;20104;-38
2023/09/07 00:02:40;;;;;;;6.07;2.80;;;16.00;99.90;;;15.92;100.00;97558.72;5009278;28;20030;-37
2023/09/07 00:05:07;;;;;;;4.80;2.20;;;16.00;99.90;;;15.82;100.00;97556.53;5005244;28;20029;-37
2023/09/07 00:07:33;;;;;;;3.05;2.08;;;16.00;99.90;;;15.84;100.00;97561.78;5005110;28;20025;-39
2023/09/07 00:09:59;;;;;;;3.25;2.33;;;15.90;99.90;;;15.80;100.00;97563.75;5007969;28;20030;-39
2023/09/07 00:12:26;;;;;;;3.17;2.22;;;15.90;99.90;;;15.77;100.00;97571.91;5008136;28;20622;-37
2023/09/07 00:14:54;;;;;;;3.30;2.38;;;15.80;99.90;;;15.74;100.00;97560.53;5008642;28;20950;-38
2023/09/07 00:17:20;;;;;;;3.05;2.38;;;15.80;99.90;;;15.64;100.00;97557.53;5006702;28;20292;-38
2023/09/07 00:19:48;;;;;;;7.57;2.45;;;15.80;99.90;;;15.65;100.00;97565.44;5005986;28;20028;-38
2023/09/07 00:22:15;;;;;;;2.97;2.42;;;15.70;99.90;;;15.53;100.00;97554.63;5006561;28;20375;-38
2023/09/07 00:24:40;;;;;;;3.92;2.90;;;15.70;99.90;;;15.56;100.00;97565.06;5003202;28;20073;-40
2023/09/07 00:27:07;;;;;;;4.18;2.90;;;15.70;99.90;;;15.58;100.00;97565.84;5006409;28;20040;-37
2023/09/07 00:29:34;;;;;;;4.18;2.75;;;15.70;99.90;;;15.58;100.00;97566.72;5002950;28;20033;-37
2023/09/07 00:32:01;;;;;;;5.13;2.78;;;15.70;99.90;;;15.57;100.00;97564.97;5008757;28;20033;-38
2023/09/07 00:34:26;;;;;;;3.38;2.90;;;15.60;99.90;;;15.56;100.00;97563.28;5008206;28;20592;-38
2023/09/07 00:36:52;;;;;;;5.68;2.90;;;15.70;99.90;;;15.54;100.00;97553.66;5011934;28;20042;-38
2023/09/07 00:39:17;;;;;;;3.13;2.60;;;15.60;99.90;;;15.52;100.00;97553.72;5009157;28;20041;-38
2023/09/07 00:41:43;;;;;;;3.17;2.67;;;15.60;99.90;;;15.49;100.00;97558.34;5008193;28;20038;-37
2023/09/07 00:44:09;;;;;;;4.78;3.08;;;15.60;99.90;;;15.45;100.00;97558.53;5012794;28;20414;-38
2023/09/07 00:46:35;;;;;;;4.22;2.97;;;15.60;99.90;;;15.52;100.00;97558.19;5011279;28;20323;-38
2023/09/07 00:49:02;;;;;;;3.83;2.80;;;15.60;99.90;;;15.55;100.00;97566.00;5005503;28;20025;-37
2023/09/07 00:51:28;;;;;;;3.70;2.90;;;15.60;99.90;;;15.54;100.00;97567.81;5004081;28;20189;-39
2023/09/07 00:53:54;;;;;;;3.33;2.50;;;15.60;99.90;;;15.49;100.00;97551.25;5007100;28;20085;-39
2023/09/07 00:56:20;;;;;;;4.95;3.22;;;15.60;99.90;;;15.56;100.00;97554.41;5011595;28;20176;-39
2023/09/07 00:58:46;;;;;;;4.80;3.28;;;15.60;99.90;;;15.54;100.00;97559.84;5006286;28;20037;-38
2023/09/07 01:01:12;;;;;;;5.60;3.35;;;15.60;99.90;;;15.46;100.00;97551.41;5006864;28;20051;-38
2023/09/07 01:03:37;;;;;;;5.50;2.83;;;15.60;99.90;;;15.46;100.00;97559.41;5005332;28;20394;-38
2023/09/07 01:06:30;;;;;;;5.15;3.47;;;15.60;99.90;;;15.38;100.00;97565.13;5009374;28;20021;-37
2023/09/07 01:09:01;;;;;;;5.57;3.40;;;15.50;99.90;;;15.35;100.00;97569.75;5006932;28;20320;-38
2023/09/07 01:11:26;;;;;;;5.63;3.22;;;15.50;99.90;;;15.32;100.00;97560.13;5006177;28;20042;-38
2023/09/07 01:13:53;;;;;;;4.90;3.25;;;15.50;99.90;;;15.32;100.00;97564.59;5007780;28;20353;-38
2023/09/07 01:16:21;;;;;;;6.05;3.25;;;15.50;99.90;;;15.28;100.00;97558.59;5011769;28;20401;-37
2023/09/07 01:18:47;;;;;;;3.55;2.70;;;15.40;99.90;;;15.29;100.00;97557.66;5007442;28;20343;-38
2023/09/07 01:21:13;;;;;;;4.22;2.88;;;15.40;99.90;;;15.13;100.00;97531.03;5006513;28;20123;-38
2023/09/07 01:23:43;;;;;;;3.97;3.28;;;15.40;99.90;;;15.26;100.00;97557.81;5007620;28;20059;-39
2023/09/07 01:26:11;;;;;;;4.82;3.20;;;15.40;99.90;;;15.22;100.00;97561.59;5012305;28;20033;-38
2023/09/07 01:28:37;;;;;;;5.10;3.20;;;15.30;99.90;;;15.20;100.00;97560.78;5013995;28;20566;-38
2023/09/07 01:31:03;;;;;;;5.00;3.42;;;15.30;99.90;;;15.19;100.00;97548.44;5008343;28;20491;-37
2023/09/07 01:33:29;;;;;;;5.50;3.25;;;15.30;99.90;;;15.14;100.00;97550.50;5006673;28;20481;-38
2023/09/07 01:35:55;;;;;;;4.82;3.53;;;15.30;99.90;;;15.12;100.00;97547.06;5007944;28;20148;-38
2023/09/07 01:38:21;;;;;;;4.35;3.13;;;15.30;99.90;;;15.08;100.00;97544.56;5012890;28;20466;-38
2023/09/07 01:40:47;;;;;;;7.82;3.30;;;15.20;99.90;;;15.07;100.00;97549.94;5009596;28;20117;-38
2023/09/07 01:43:12;;;;;;;4.15;3.20;;;15.20;99.90;;;15.06;100.00;97546.44;5009832;28;20030;-38
2023/09/07 01:45:38;;;;;;;6.90;3.63;;;15.20;99.90;;;14.91;100.00;97520.69;5007651;28;20493;-38
2023/09/07 01:48:13;;;;;;;7.28;3.42;;;15.20;99.90;;;14.99;100.00;97554.81;5012999;28;20358;-38
2023/09/07 01:50:39;;;;;;;3.97;3.25;;;15.10;99.90;;;14.94;100.00;97555.03;5011064;28;20033;-38
2023/09/07 01:53:04;;;;;;;6.60;4.18;;;15.10;99.90;;;14.89;100.00;97552.66;5013341;28;20032;-38
2023/09/07 01:55:33;;;;;;;4.70;3.38;;;15.00;99.90;;;14.86;100.00;97560.75;5010428;28;20477;-38
2023/09/07 01:57:59;;;;;;;4.97;3.40;;;15.00;99.90;;;14.78;100.00;97556.78;5010367;28;20804;-37
2023/09/07 02:00:25;;;;;;;6.28;3.53;;;15.00;99.90;;;14.79;100.00;97563.81;5005309;28;20041;-37
2023/09/07 02:02:51;;;;;;;4.30;3.60;;;15.00;99.90;;;14.77;100.00;97557.69;5010238;28;20075;-40
2023/09/07 02:05:17;;;;;;;7.32;3.80;;;15.00;99.90;;;14.74;100.00;97561.38;4990156;28;20040;-37
2023/09/07 02:07:43;;;;;;;4.80;3.67;;;14.90;99.90;;;14.72;100.00;97557.13;5013107;28;20465;-37
2023/09/07 02:10:10;;;;;;;5.43;3.35;;;14.90;99.90;;;14.70;100.00;97565.16;5004514;28;20069;-37
2023/09/07 02:12:36;;;;;;;5.75;3.90;;;14.80;99.90;;;14.66;100.00;97566.22;5041335;23;20511;-36
2023/09/07 02:15:05;;;;;;;6.25;3.83;;;14.80;99.90;;;14.64;100.00;97562.78;5027716;28;20029;-36
2023/09/07 02:17:32;;;;;;;5.32;3.85;;;14.80;99.90;;;14.58;100.00;97563.97;5024087;28;20036;-36
2023/09/07 02:19:57;;;;;;;6.18;3.50;;;14.70;99.90;;;14.56;100.00;97560.50;5028935;28;20084;-36
2023/09/07 02:22:23;;;;;;;5.68;3.47;;;14.70;99.90;;;14.54;100.00;97553.56;5023779;28;20044;-36
2023/09/07 02:24:49;;;;;;;5.97;3.92;;;14.70;99.90;;;14.52;100.00;97557.13;5028661;28;20228;-35
2023/09/07 02:27:15;;;;;;;4.47;3.58;;;14.70;99.90;;;14.52;100.00;97556.28;5029126;28;20029;-36
2023/09/07 02:29:41;;;;;;;4.55;3.40;;;14.60;99.90;;;14.46;100.00;97552.16;5030810;28;20043;-36
2023/09/07 02:32:07;;;;;;;7.03;3.60;;;14.60;99.90;;;14.45;100.00;97552.22;5025092;28;20542;-36
2023/09/07 02:34:36;;;;;;;5.68;3.50;;;14.60;99.90;;;14.43;100.00;97554.09;5030303;28;20028;-36
2023/09/07 02:37:03;;;;;;;6.88;3.45;;;14.60;99.90;;;14.31;100.00;97540.50;5025669;28;20830;-36
2023/09/07 02:39:29;;;;;;;5.15;3.75;;;14.50;99.90;;;14.36;100.00;97550.03;5030248;28;20401;-36
2023/09/07 02:41:54;;;;;;;4.95;3.80;;;14.50;99.90;;;14.33;100.00;97545.72;5032532;28;20028;-36
2023/09/07 02:44:20;;;;;;;5.82;3.95;;;14.50;99.90;;;14.31;100.00;97551.09;5030537;28;20082;-36
2023/09/07 02:46:46;;;;;;;5.78;4.10;;;14.50;99.90;;;14.29;100.00;97544.16;5027765;28;20496;-36
2023/09/07 02:49:12;;;;;;;6.05;3.80;;;14.40;99.90;;;14.29;100.00;97547.66;5028390;28;20025;-36
2023/09/07 02:51:38;;;;;;;6.18;4.10;;;14.40;99.90;;;14.26;100.00;97542.50;5028891;28;20090;-36
2023/09/07 02:54:05;;;;;;;5.80;3.75;;;14.40;99.90;;;14.20;100.00;97542.81;5030819;28;20090;-36
2023/09/07 02:56:31;;;;;;;4.43;3.70;;;14.40;99.90;;;14.25;100.00;97545.25;5030547;28;20036;-37
2023/09/07 02:58:57;;;;;;;5.03;3.92;;;14.40;99.90;;;14.21;100.00;97541.03;5035474;28;20033;-36
2023/09/07 03:01:22;;;;;;;7.60;4.05;;;14.40;99.90;;;14.17;100.00;97544.78;5030691;28;20496;-36
2023/09/07 03:03:48;;;;;;;4.72;3.90;;;14.40;99.90;;;14.11;100.00;97536.19;5031905;28;20489;-36
2023/09/07 03:06:18;;;;;;;5.70;4.00;;;14.30;99.90;;;14.10;100.00;97538.91;5030107;28;20108;-36
2023/09/07 03:08:44;;;;;;;6.18;3.88;;;14.30;99.90;;;14.05;100.00;97544.44;5028974;28;20072;-37
2023/09/07 03:11:11;;;;;;;4.97;3.92;;;14.20;99.90;;;14.03;100.00;97541.00;5027347;28;20139;-36
2023/09/07 03:13:37;;;;;;;5.43;3.75;;;14.20;99.90;;;14.03;100.00;97550.75;5029924;28;20060;-36
2023/09/07 03:16:04;;;;;;;6.20;3.92;;;14.20;99.90;;;14.02;100.00;97543.72;5029156;28;20040;-36
2023/09/07 03:18:31;;;;;;;5.05;3.63;;;14.20;99.90;;;13.94;100.00;97542.31;5029730;28;20114;-36
2023/09/07 03:20:59;;;;;;;5.07;3.70;;;14.20;99.90;;;13.92;100.00;97544.16;5027137;28;20212;-36
2023/09/07 03:23:30;;;;;;;6.60;3.90;;;14.10;99.90;;;13.91;100.00;97545.09;5025617;28;20121;-36
2023/09/07 03:25:57;;;;;;;5.45;3.88;;;14.10;99.90;;;13.87;100.00;97543.53;5028175;28;20036;-36
2023/09/07 03:28:24;;;;;;;6.35;4.13;;;14.00;99.90;;;13.84;100.00;97540.19;5027653;28;20166;-36
2023/09/07 03:30:51;;;;;;;6.22;4.00;;;14.00;99.90;;;13.82;100.00;97536.72;5027140;28;20657;-36
2023/09/07 03:33:17;;;;;;;4.65;3.97;;;14.00;99.90;;;13.79;100.00;97536.88;5027509;28;20021;-36
2023/09/07 03:35:42;;;;;;;6.80;4.65;;;13.90;99.90;;;13.76;100.00;97532.56;5027300;28;20034;-36
2023/09/07 03:38:08;;;;;;;7.78;4.47;;;13.90;99.90;;;13.72;100.00;97536.31;5027137;28;20037;-36
2023/09/07 03:40:34;;;;;;;6.57;4.22;;;13.90;99.90;;;13.71;100.00;97529.28;5029769;28;20041;-36
2023/09/07 03:43:00;;;;;;;5.55;4.25;;;13.90;99.90;;;13.69;100.00;97531.13;5028061;28;20045;-37
2023/09/07 03:45:25;;;;;;;4.72;3.67;;;13.90;99.90;;;13.68;100.00;97532.09;5026569;28;20041;-36
2023/09/07 03:47:51;;;;;;;7.60;4.07;;;13.90;99.90;;;13.65;100.00;97532.22;5030936;28;20032;-36
2023/09/07 03:50:17;;;;;;;7.75;4.03;;;13.90;99.90;;;13.62;100.00;97532.38;5024794;28;20148;-36
2023/09/07 03:52:42;;;;;;;5.60;4.10;;;13.90;99.90;;;13.60;100.00;97536.88;5025332;28;20022;-36
2023/09/07 03:55:08;;;;;;;7.75;4.20;;;13.80;99.90;;;13.58;100.00;97541.41;5027634;28;20036;-36
2023/09/07 03:57:34;;;;;;;4.65;3.63;;;13.80;99.90;;;13.58;100.00;97536.09;5024425;28;20063;-36
2023/09/07 04:00:00;;;;;;;7.30;3.90;;;13.80;99.90;;;13.55;100.00;97534.47;5030965;28;20476;-36
2023/09/07 04:02:26;;;;;;;6.95;4.00;;;13.80;99.90;;;13.46;100.00;97519.84;5029512;28;20025;-36
2023/09/07 04:04:53;;;;;;;5.20;3.70;;;13.70;99.90;;;13.52;100.00;97529.31;5028966;28;20098;-36
2023/09/07 04:07:19;;;;;;;6.50;3.92;;;13.70;99.90;;;13.48;100.00;97525.94;5029523;28;20528;-37
2023/09/07 04:09:45;;;;;;;5.38;3.92;;;13.70;99.90;;;13.49;100.00;97527.63;5027080;28;20334;-36
2023/09/07 04:12:12;;;;;;;5.80;3.97;;;13.60;99.90;;;13.47;100.00;97526.00;5031171;28;20253;-36
2023/09/07 04:14:38;;;;;;;5.40;3.75;;;13.60;99.90;;;13.47;100.00;97532.16;5032530;28;20485;-36
2023/09/07 04:17:04;;;;;;;5.45;4.15;;;13.60;99.90;;;13.43;100.00;97527.09;5026853;28;20946;-36
2023/09/07 04:19:30;;;;;;;6.07;3.90;;;13.60;99.90;;;13.44;100.00;97532.31;5027770;28;20037;-36
2023/09/07 04:21:57;;;;;;;5.93;3.95;;;13.60;99.90;;;13.43;100.00;97529.72;5031614;28;20102;-36
2023/09/07 04:24:23;;;;;;;5.20;3.90;;;13.60;99.90;;;13.40;100.00;97533.38;5028273;28;20482;-36
2023/09/07 04:26:52;;;;;;;5.50;3.60;;;13.60;99.90;;;13.38;100.00;97531.72;5027310;28;20041;-36
2023/09/07 04:29:17;;;;;;;6.78;4.07;;;13.60;99.90;;;13.36;100.00;97527.34;5027072;28;20392;-36
2023/09/07 04:31:43;;;;;;;6.32;4.03;;;13.60;99.90;;;13.35;100.00;97535.38;5030861;28;20501;-36
2023/09/07 04:34:09;;;;;;;6.32;3.90;;;13.60;99.90;;;13.31;100.00;97525.84;5028335;28;20190;-36
2023/09/07 04:36:34;;;;;;;4.53;3.50;;;13.50;99.90;;;13.23;100.00;97520.03;5024787;28;20036;-36
2023/09/07 04:39:03;;;;;;;7.50;3.92;;;13.50;99.90;;;13.22;100.00;97524.44;5031935;28;20111;-36
2023/09/07 04:41:29;;;;;;;6.50;3.95;;;13.50;99.90;;;13.23;100.00;97528.81;5031239;28;20408;-36
2023/09/07 04:43:55;;;;;;;6.25;4.05;;;13.40;99.90;;;13.20;100.00;97520.16;5025693;28;20115;-36
2023/09/07 04:46:25;;;;;;;5.63;4.25;;;13.50;99.90;;;13.21;100.00;97524.50;5021004;28;20040;-36
2023/09/07 04:48:50;;;;;;;5.57;3.90;;;13.40;99.90;;;13.21;100.00;97519.22;5014672;28;20570;-36
2023/09/07 04:51:16;;;;;;;5.45;4.10;;;13.40;99.90;;;13.21;100.00;97528.03;5021337;28;20033;-36
2023/09/07 04:53:42;;;;;;;5.85;4.47;;;13.40;99.90;;;13.18;100.00;97531.66;5026263;28;20064;-36
2023/09/07 04:56:08;;;;;;;7.32;3.90;;;13.40;99.90;;;13.20;100.00;97536.03;5034317;28;20046;-36
2023/09/07 04:58:35;;;;;;;6.38;4.35;;;13.40;99.90;;;13.18;100.00;97529.03;5036860;28;20047;-36
2023/09/07 05:01:09;;;;;;;5.15;4.32;;;13.40;99.90;;;13.18;100.00;97544.06;5031760;28;20041;-36
2023/09/07 05:03:36;;;;;;;5.63;4.45;;;13.40;99.90;;;13.10;100.00;97531.16;5033378;28;20040;-36
2023/09/07 05:06:03;;;;;;;8.95;4.57;;;13.40;99.90;;;13.21;100.00;97541.28;5036473;28;20033;-36
2023/09/07 05:08:29;;;;;;;7.00;4.40;;;13.40;99.90;;;13.16;100.00;97536.19;5034355;28;20029;-36
2023/09/07 05:11:02;;;;;;;6.05;4.10;;;13.40;99.90;;;13.26;100.00;97547.22;5034785;28;20078;-37
2023/09/07 05:13:29;;;;;;;5.95;4.22;;;13.40;99.90;;;13.29;100.00;97551.50;5035002;28;20025;-36
2023/09/07 05:15:56;;;;;;;5.28;4.10;;;13.40;99.90;;;13.30;100.00;97553.25;5029641;28;20395;-36
2023/09/07 05:18:22;;;;;;;6.68;4.05;;;13.50;99.90;;;13.32;100.00;97551.41;5031820;28;20681;-36
2023/09/07 05:20:49;;;;;;;5.40;4.18;;;13.50;99.90;;;13.33;100.00;97550.47;5030718;28;20025;-36
2023/09/07 05:23:17;;;;;;;7.15;5.03;;;13.50;99.90;;;13.41;100.00;97551.00;5027551;28;20054;-36
2023/09/07 05:25:45;;;;;;;5.78;4.35;;;13.60;99.90;;;13.47;100.00;97556.00;5028276;28;20036;-36
2023/09/07 05:28:12;;;;;;;5.88;4.10;;;13.60;99.90;;;13.51;100.00;97557.59;5030144;28;20713;-36
2023/09/07 05:30:38;;;;;;;6.35;4.35;;;13.70;99.90;;;13.56;100.00;97567.97;5028038;28;20094;-36
2023/09/07 05:33:04;;;;;;;7.07;4.40;;;13.70;99.90;;;13.59;100.00;97564.31;5028258;28;20037;-36
2023/09/07 05:35:32;;;;;;;4.95;4.30;;;13.80;99.90;;;13.63;100.00;97572.03;5030063;28;20032;-36
2023/09/07 05:37:58;;;;;;;5.35;3.97;;;13.80;99.90;;;13.68;100.00;97566.53;5026755;28;20396;-36
2023/09/07 05:40:24;;;;;;;7.72;4.50;;;13.80;99.90;;;13.74;100.00;97576.84;5023779;28;20025;-36
2023/09/07 05:42:50;;;;;;;8.35;4.68;;;13.90;99.90;;;13.79;100.00;97572.19;5026892;28;20505;-36
2023/09/07 05:45:15;;;;;;;10.13;4.70;;;14.00;99.90;;;13.84;100.00;97578.13;5027910;28;20025;-36
2023/09/07 05:47:41;;;;;;;6.38;4.30;;;14.00;99.90;;;13.91;100.00;97568.13;5026345;28;20031;-36
2023/09/07 05:50:07;;;;;;;7.45;4.82;;;14.10;99.90;;;13.96;100.00;97567.88;5027713;28;20091;-36
2023/09/07 05:52:33;;;;;;;6.78;4.60;;;14.20;99.90;;;14.01;100.00;97568.53;5028915;28;20441;-36
2023/09/07 05:54:59;;;;;;;6.80;4.68;;;14.20;99.90;;;14.08;100.00;97564.63;5027583;28;20037;-36
2023/09/07 05:57:24;;;;;;;8.88;4.47;;;14.30;99.90;;;14.14;100.00;97572.31;5026837;28;20037;-36
2023/09/07 05:59:50;;;;;;;6.00;4.72;;;14.40;99.90;;;14.15;100.00;97568.72;5032000;28;20033;-36
2023/09/07 06:02:16;;;;;;;6.93;4.93;;;14.40;99.90;;;14.26;100.00;97577.00;5032671;28;20027;-36
2023/09/07 06:04:42;;;;;;;7.95;5.28;;;14.50;99.90;;;14.26;100.00;97562.88;5035505;28;20503;-37
2023/09/07 06:07:07;;;;;;;7.80;4.90;;;14.50;99.90;;;14.38;100.00;97564.09;5038832;28;20040;-36
2023/09/07 06:09:33;;;;;;;8.13;5.70;;;14.60;99.90;;;14.45;100.00;97566.34;5038286;28;20079;-36
2023/09/07 06:11:59;;;;;;;8.43;5.13;;;14.70;99.90;;;14.55;100.00;97571.19;5028699;28;20411;-36
2023/09/07 06:14:24;;;;;;;6.97;4.88;;;14.70;99.90;;;14.63;100.00;97569.91;5033469;28;20103;-36
2023/09/07 06:16:50;;;;;;;7.32;5.20;;;14.80;99.90;;;14.72;100.00;97570.38;5026699;28;20460;-36
2023/09/07 06:19:16;;;;;;;11.20;5.47;;;14.90;99.90;;;14.81;100.00;97568.09;5024465;28;20033;-36
2023/09/07 06:21:41;;;;;;;6.20;4.95;;;15.00;99.90;;;14.89;100.00;97570.34;5034348;28;20562;-37
2023/09/07 06:24:07;;;;;;;7.50;5.45;;;15.10;99.90;;;14.98;100.00;97582.31;5027974;28;20290;-37
2023/09/07 06:26:33;;;;;;;8.35;5.85;;;15.20;99.90;;;15.05;100.00;97581.03;5026284;28;20397;-37
2023/09/07 06:28:59;;;;;;;6.50;5.22;;;15.30;99.90;;;15.13;100.00;97570.00;5027421;28;20316;-37
2023/09/07 06:31:24;;;;;;;8.20;6.18;;;15.30;99.90;;;15.22;100.00;97565.09;5026864;28;20420;-37
2023/09/07 06:33:50;;;;;;;6.40;4.97;;;15.40;99.90;;;15.33;100.00;97568.97;5026762;28;20028;-37
2023/09/07 06:36:16;;;;;;;6.32;4.78;;;15.50;99.90;;;15.42;100.00;97569.34;5027813;28;20044;-37
2023/09/07 06:38:41;;;;;;;7.47;5.28;;;15.60;99.90;;;15.52;100.00;97569.69;5024326;28;20032;-37
2023/09/07 06:41:09;;;;;;;7.35;5.18;;;15.70;99.90;;;15.62;100.00;97567.41;5027893;28;20044;-37
2023/09/07 06:43:36;;;;;;;9.00;5.78;;;15.80;99.90;;;15.69;100.00;97571.44;5028097;28;20033;-36
2023/09/07 06:46:09;;;;;;;11.55;5.43;;;15.90;99.90;;;15.66;100.00;97550.31;5024989;28;20161;-37
2023/09/07 06:48:35;;;;;;;7.10;5.38;;;16.00;99.90;;;15.84;100.00;97573.28;5024050;28;20037;-37
2023/09/07 06:51:05;;;;;;;7.80;5.80;;;16.00;99.90;;;15.95;100.00;97574.47;5024421;28;20251;-37
2023/09/07 06:53:31;;;;;;;7.18;5.00;;;16.10;99.90;;;16.07;100.00;97573.78;5027415;28;20063;-37
2023/09/07 06:56:02;;;;;;;8.30;5.63;;;16.30;99.90;;;16.19;100.00;97578.41;5026760;28;20047;-37
2023/09/07 06:58:28;;;;;;;6.47;4.40;;;16.40;99.90;;;16.27;100.00;97579.78;5027590;28;20507;-37
2023/09/07 07:01:00;;;;;;;5.47;4.20;;;16.50;99.90;;;16.41;100.00;97590.50;5026910;28;20033;-37
2023/09/07 07:03:30;;;;;;;6.78;5.10;;;16.60;99.90;;;16.49;100.00;97593.59;5024568;28;20497;-37
2023/09/07 07:05:56;;;;;;;6.97;4.70;;;16.70;99.90;;;16.52;100.00;97585.41;5013242;28;20187;-37
2023/09/07 07:08:23;;;;;;;7.55;4.85;;;16.70;99.90;;;16.65;100.00;97587.34;5027044;28;21264;-37
2023/09/07 07:10:49;;;;;;;8.68;5.15;;;16.80;99.90;;;16.73;100.00;97595.75;5025128;28;20033;-37
2023/09/07 07:13:15;;;;;;;5.28;4.32;;;16.90;99.90;;;16.83;100.00;97596.94;5028757;28;20088;-37
2023/09/07 07:15:41;;;;;;;7.85;4.65;;;17.00;99.90;;;16.95;100.00;97593.56;5028652;28;20444;-37
2023/09/07 07:18:10;;;;;;;6.22;4.65;;;17.10;99.90;;;17.06;100.00;97597.41;5024430;28;20036;-37
2023/09/07 07:20:42;;;;;;;5.95;4.55;;;17.20;99.90;;;17.22;100.00;97606.19;5024348;28;20295;-36
2023/09/07 07:23:07;;;;;;;7.30;4.60;;;17.40;99.90;;;17.27;100.00;97596.09;5022083;28;20037;-36
2023/09/07 07:25:34;;;;;;;7.22;4.53;;;17.50;99.90;;;17.43;100.00;97604.03;5023707;28;20492;-37
2023/09/07 07:28:01;;;;;;;5.65;4.32;;;17.60;99.90;;;17.55;100.00;97607.75;5016490;28;20404;-37
2023/09/07 07:30:29;;;;;;;6.97;4.57;;;17.70;99.90;;;17.64;100.00;97598.28;5008545;28;20259;-36
2023/09/07 07:32:56;;;;;;;5.45;4.10;;;17.80;99.90;;;17.83;100.00;97604.19;5016103;28;20028;-37
2023/09/07 07:35:22;;;;;;;5.40;4.65;;;18.00;99.90;;;17.97;100.00;97605.19;5017542;28;20657;-37
2023/09/07 07:37:49;;;;;;;5.18;4.32;;;18.10;99.90;;;18.08;100.00;97602.66;5033733;28;20032;-37
2023/09/07 07:40:15;;;;;;;9.80;5.80;;;18.20;99.90;;;18.10;100.00;97585.59;5026895;28;20067;-37
2023/09/07 07:42:41;;;;;;;9.52;4.65;;;18.30;99.90;;;18.29;100.00;97598.63;5017743;28;20477;-37
2023/09/07 07:45:08;;;;;;;5.57;4.60;;;18.40;99.90;;;18.41;100.00;97604.09;5008830;28;20226;-37
2023/09/07 07:47:34;;;;;;;6.70;4.88;;;18.50;99.90;;;18.46;100.00;97600.16;5019656;28;20491;-37
2023/09/07 07:49:59;;;;;;;7.22;4.68;;;18.60;99.90;;;18.56;100.00;97596.91;5009151;28;20619;-37
2023/09/07 07:52:25;;;;;;;7.60;4.72;;;18.70;99.90;;;18.66;100.00;97604.22;5027844;28;20041;-36
2023/09/07 07:54:51;;;;;;;6.15;4.72;;;18.80;99.90;;;18.77;100.00;97606.16;5023850;28;20536;-37
2023/09/07 07:57:16;;;;;;;8.57;4.50;;;18.80;99.90;;;18.84;100.00;97596.81;5029909;28;20516;-36
2023/09/07 07:59:42;;;;;;;6.35;4.57;;;18.90;99.90;;;18.94;100.00;97598.88;5036261;28;20388;-37
2023/09/07 08:02:08;;;;;;;8.68;4.57;;;19.00;99.90;;;19.08;100.00;97599.63;5028418;28;20036;-37
2023/09/07 08:04:35;;;;;;;7.10;4.88;;;19.10;99.90;;;19.12;100.00;97586.91;5010387;28;20036;-37
2023/09/07 08:07:05;;;;;;;7.57;4.75;;;19.20;99.90;;;19.21;100.00;97586.28;5013769;28;20031;-37
2023/09/07 08:09:31;;;;;;;6.03;4.15;;;19.40;99.90;;;19.41;100.00;97594.72;5025314;28;20112;-36
2023/09/07 08:11:57;;;;;;;5.78;4.65;;;19.40;99.90;;;19.54;100.00;97586.69;5041621;23;20052;-38
2023/09/07 08:14:25;;;;;;;9.02;5.25;;;19.60;99.90;;;19.61;100.00;97596.88;5011423;28;20048;-38
2023/09/07 08:16:50;;;;;;;8.68;4.72;;;19.60;99.90;;;19.74;100.00;97596.91;5011497;28;20049;-37
2023/09/07 08:19:16;;;;;;;7.50;4.55;;;19.70;99.90;;;19.87;100.00;97586.16;5015498;28;20457;-38
2023/09/07 08:21:44;;;;;;;6.32;4.32;;;19.80;99.90;;;19.99;100.00;97590.63;5017891;28;20040;-37
2023/09/07 08:24:09;;;;;;;9.40;4.68;;;19.90;99.90;;;20.07;100.00;97587.41;5030707;28;20025;-37
2023/09/07 08:26:36;;;;;;;7.28;4.45;;;20.00;99.90;;;20.06;100.00;97561.56;5026238;28;20039;-38
2023/09/07 08:29:05;;;;;;;6.80;4.90;;;20.10;99.90;;;20.19;100.00;97575.78;5029913;28;20120;-37
2023/09/07 08:31:33;;;;;;;5.65;4.60;;;20.20;99.90;;;20.39;100.00;97589.53;5027076;28;20477;-37
2023/09/07 08:34:00;;;;;;;9.02;4.65;;;20.30;99.90;;;20.41;100.00;97580.41;5025743;28;20037;-37
2023/09/07 08:36:28;;;;;;;6.68;4.97;;;20.30;99.90;;;20.54;100.00;97588.38;5018650;28;20401;-37
2023/09/07 08:38:54;;;;;;;6.93;4.47;;;20.40;99.90;;;20.58;100.00;97589.00;5029299;28;20032;-37
2023/09/07 08:41:21;;;;;;;7.88;4.88;;;20.50;99.90;;;20.67;100.00;97593.72;5009902;28;20037;-37
2023/09/07 08:43:46;;;;;;;6.32;4.70;;;20.60;99.90;;;20.79;100.00;97598.16;5026872;28;20079;-37
2023/09/07 08:46:23;;;;;;;6.80;4.95;;;20.70;99.90;;;20.95;100.00;97602.38;5026848;28;20132;-37
2023/09/07 08:48:50;;;;;;;8.38;5.03;;;20.90;99.90;;;21.11;100.00;97607.41;5019037;28;20037;-37
2023/09/07 08:51:18;;;;;;;8.07;4.95;;;21.00;99.90;;;21.15;100.00;97600.84;5021554;28;20504;-38
2023/09/07 08:53:46;;;;;;;7.75;4.53;;;21.10;99.90;;;21.23;99.49;97600.25;5031196;28;20049;-37
2023/09/07 08:56:21;;;;;;;8.07;4.85;;;21.10;99.90;;;21.29;97.38;97597.09;5030146;28;20035;-38
2023/09/07 08:58:49;;;;;;;5.85;4.95;;;21.20;99.90;;;21.33;95.17;97603.94;5035431;28;20036;-38
2023/09/07 09:01:15;;;;;;;6.35;4.95;;;21.20;99.90;;;21.32;94.01;97597.72;5028536;28;20029;-38
2023/09/07 09:03:45;;;;;;;5.53;4.22;;;21.20;99.90;;;21.35;94.54;97602.84;5023297;28;20087;-39
2023/09/07 09:06:12;;;;;;;7.47;4.90;;;21.20;99.90;;;21.36;95.73;97604.53;5026297;28;20025;-37
2023/09/07 09:08:49;;;;;;;6.22;4.88;;;21.30;99.90;;;21.41;95.38;97606.88;5032073;28;20028;-38
2023/09/07 09:11:16;;;;;;;8.25;4.85;;;21.30;99.90;;;21.46;98.33;97610.09;5022648;28;20067;-38
2023/09/07 09:13:43;;;;;;;9.80;5.50;;;21.40;99.90;;;21.51;94.12;97599.00;5028739;28;20052;-38
2023/09/07 09:16:10;;;;;;;4.90;4.00;;;21.40;99.90;;;21.59;95.87;97601.94;5037932;28;20115;-38
2023/09/07 09:18:36;;;;;;;7.10;5.13;;;21.40;99.90;;;21.58;92.64;97592.16;5030034;28;20632;-38
2023/09/07 09:21:02;;;;;;;5.00;4.38;;;21.50;99.90;;;21.71;92.69;97597.41;5034591;28;20028;-37
2023/09/07 09:23:36;;;;;;;6.32;5.30;;;21.60;99.90;;;21.85;94.34;97594.47;5029264;28;20028;-37
2023/09/07 09:26:04;;;;;;;8.15;4.32;;;21.70;99.90;;;21.97;92.45;97591.81;5035876;28;20033;-39
2023/09/07 09:28:34;;;;;;;9.40;4.55;;;21.80;99.90;;;21.99;91.92;97593.38;5033373;28;20469;-38
2023/09/07 09:31:02;;;;;;;9.85;4.60;;;21.90;99.90;;;22.01;90.43;97593.25;5030644;28;20067;-39
2023/09/07 09:33:30;;;;;;;6.20;4.55;;;21.90;99.90;;;22.04;91.58;97590.34;5032129;28;20035;-37
2023/09/07 09:35:56;;;;;;;6.22;4.25;;;21.90;99.90;;;22.09;92.06;97585.44;5031047;28;20045;-38
2023/09/07 09:38:22;;;;;;;8.20;4.82;;;21.90;99.90;;;22.10;95.33;97588.00;5022978;28;20440;-38
2023/09/07 09:40:49;;;;;;;6.18;4.63;;;22.00;99.90;;;22.18;92.00;97595.44;5024726;28;20035;-37
2023/09/07 09:43:15;;;;;;;7.93;5.30;;;22.10;99.90;;;22.23;89.56;97587.00;5025671;28;20177;-37
2023/09/07 09:45:40;;;;;;;7.53;5.20;;;22.10;99.90;;;22.28;89.65;97582.97;5014916;28;20404;-38
2023/09/07 09:48:06;;;;;;;7.25;4.85;;;22.20;99.90;;;22.33;90.04;97582.63;5023671;28;20022;-39
2023/09/07 09:50:39;;;;;;;7.15;5.07;;;22.20;99.90;;;22.27;89.33;97577.72;5018066;28;20035;-37
2023/09/07 09:53:08;;;;;;;8.30;5.15;;;22.30;99.90;;;22.33;91.10;97582.63;5022540;28;20129;-38
2023/09/07 09:55:38;;;;;;;6.47;4.88;;;22.30;99.90;;;22.37;93.27;97576.00;5023353;28;20068;-37
2023/09/07 09:58:04;;;;;;;7.07;5.57;;;22.30;99.90;;;22.45;91.63;97578.94;5029276;28;20465;-37
2023/09/07 10:00:31;;;;;;;7.00;4.70;;;22.40;99.90;;;22.53;90.81;97583.66;5021138;28;20037;-39
2023/09/07 10:03:04;;;;;;;6.80;4.90;;;22.40;99.90;;;22.57;93.48;97573.50;5035787;28;20037;-37
2023/09/07 10:05:31;;;;;;;7.30;5.25;;;22.50;99.90;;;22.65;87.74;97574.59;5018800;28;20455;-38
2023/09/07 10:08:06;;;;;;;10.20;5.35;;;22.50;99.90;;;22.75;87.00;97585.41;5026986;28;20264;-39
2023/09/07 10:10:36;;;;;;;5.97;5.38;;;22.60;99.90;;;22.74;88.60;97577.47;5029336;28;20133;-39